If you wish to contribute or participate in the discussions about articles you are invited to join SKYbrary as a registered user

 Actions

Khoy Airport

From SKYbrary Wiki

OITK
Airport
ICAO: OITK – IATA: KHY
Summary
Name Khoy Airport
Region Middle East
Territory Iran IR.gif
Location Azab, West Azerbaijan Province
Serving Khoy
Elevation 1,213.409 m
3,981 ft1,213.409 m
Coordinates 38° 25' 15.20" N, 44° 58' 22.49" E
Runways
Designator Length Width Surface ROPS
15/33 2801 m9,189.633 ft
30 m98.425 ft
ASP /


METAR
Observation OITK 111000Z 17012G23KT 9999 FEW035TCU SCT040 20/05 Q1013
Station Khoy
Date/Time 11 April 2019 10:00:00
Wind direction 170°
Wind speed 12 kts
Lowest cloud amount few clouds
Temperature 20°C
Dew point 5°C
Humidity 37%
QNH 1013 hPa
Weather condition n/a

Airport 12km6.479 nm
12,000 m
39,370.079 ft
south of the city of Khoy, Iran.

Climatology

Semi-arid climate (Köppen climate classification BSk).

Maps

Terrain

Loading map...

Airport Layout

Loading map...


Accidents & Serious Incidents at or in vicinity of OITK

None on SKYbrary